Nespelem, WA (99155)

7:06 PM PDT on July 25, 2014 (GMT -0700)
Omak (KOMK) Elev 1302 ft | 48.46 °N, 119.52 °W | Change Station

Current weather conditions updated 13 minutes ago

Clear
Clear
80 °F
Feels Like 80 °F
N
0
Wind Variable Wind from North

Tomorrow is forecast to be nearly the same temperature as today.

Today
High -- | Low -- °F
--% Chance of Precip.
Yesterday
High -- | Low -- °F
Precip. -- in
5:23 AM 8:42 PM
Waning Crescent, 1% visible
Pressure 29.96 in
Visibility 10.0 miles
Clouds Clear
Dew Point 39 °F
Humidity 23%
Rainfall 0.00 in
Snow Depth 0 in
UV 1 out of 12
Pollen 5.80 out of 12
Air Quality Not available.
Flu Activity Not available.
METAR KOMK 260153Z AUTO 00000KT 10SM CLR 27/04 A2998 RMK AO2 SLP146 T02670039

More Conditions Fewer Conditions

Pressure 29.96 in
Visibility 10.0 miles
Clouds Clear
Dew Point 39 °F
Humidity 23%
Rainfall 0.00 in
Snow Depth 0 in
UV 1 out of 12
Pollen 5.80 out of 12
Air Quality Not available.
Flu Activity Not available.
METAR KOMK 260153Z AUTO 00000KT 10SM CLR 27/04 A2998 RMK AO2 SLP146 T02670039

More Conditions Fewer Conditions

10-Day Weather Forecast

Almanac

Astronomy

Jul. 25, 2014 Rise Set
Actual Time 5:23 AM PDT 8:42 PM PDT
Civil Twilight 4:45 AM PDT 9:20 PM PDT
Nautical Twilight 3:55 AM PDT 10:09 PM PDT
Astronomical Twilight 2:50 AM PDT 11:13 PM PDT
Moon 4:30 AM PDT (7/25) 7:37 PM PDT (7/25)
Length of Visible Light 16h 34m
Length of Day
15h 19m
Tomorrow will be 2m 28s shorter.
Waning Crescent, 1% of the Moon is Illuminated
Today
Waning Crescent
Jul 26
New
Aug 3
First Quarter
Aug 10
Full
Aug 17
Last Quarter

Today's Extremes

State Highs State Lows

Community

WunderPhotos

Upload Photos

1,737,475 photos uploaded!

Nearby

Snow Depth

Station Depth Elevation
Moses Mountain 0 in 5300 ft
Sentinel Butte 0 in 4920 ft
Rainy Pass 0 in 4780 ft
Harts Pass 0 in 6500 ft
Thunder Basin 1 in 4200 ft

Earthquake Activity

City Distance Mag. Time & Date
No recent earthquake activity has been reported nearby.
Minimum magnitude displayed is 2.5.

Coastal Water Temperatures

Place Temperature
No Stations Reporting

Nearby Weather Stations

Station Location Temp. Heat Index Dew Point Humidity Wind Precip. Elev Updated Type
RAWS NESPELEM WA, Elmer City, WA 81 °F 79 °F 39 °F 22% WSW  at  5 mph 0.00 in / hr 1899 ft 5:57 PM PDT MADIS
MesoWest Coulee Dam West , Electric City, WA 76 °F 77 °F 37 °F 24% North  at  3 mph 0.00 in / hr 2562 ft 4:15 PM PDT MADIS
Ranch at Lost Creek, Tonasket, WA 75.7 °F 77 °F 41 °F 29% North  at  4.5 mph 0.00 in / hr 2313 ft 7:00 PM PDT Normal
Harris Rd, Okanogan, WA 85.6 °F 82 °F 18 °F 8% SSE  at  1.0 mph - / hr 814 ft 7:05 PM PDT Normal
Brewster, WA 81.3 °F 80 °F 43 °F 26% North  at  3.0 mph 0.00 in / hr 1004 ft 7:06 PM PDT Rapid Fire
OKANOGAN / MALOTT, Okanogan, WA 79.9 °F 79 °F 38 °F 22% NNW  at  4.9 mph 0.00 in / hr 910 ft 7:06 PM PDT Rapid Fire

Show More Stations Show Fewer Stations